Time;durP1;ratioP1;P1;durP2;ratioP2;P2;SDS_P1;SDS_P2;PMS_P1;PMS_P2;Temp;Humidity;BMP_temperature;BMP_pressure;BME280_temperature;BME280_humidity;BME280_pressure;Samples;Min_cycle;Max_cycle;Signal;HPM_P1;HPM_P2
2021/04/18 00:00:17;;;;;;;33.00;18.12;;;;;;;5.97;100.00;99165.64;1794716;79;21200;-63
2021/04/18 00:02:48;;;;;;;33.33;19.55;;;;;;;6.03;100.00;99169.28;1794825;80;21026;-63
2021/04/18 00:05:21;;;;;;;43.92;21.25;;;;;;;6.02;100.00;99175.63;1794584;78;21039;-64
2021/04/18 00:07:51;;;;;;;29.80;19.32;;;;;;;6.01;100.00;99170.06;1794671;80;21007;-64
2021/04/18 00:10:21;;;;;;;25.80;17.62;;;;;;;5.95;100.00;99169.84;1794911;80;21043;-64
2021/04/18 00:12:50;;;;;;;25.30;17.40;;;;;;;5.94;100.00;99179.64;1795170;78;21006;-64
2021/04/18 00:15:18;;;;;;;29.25;18.95;;;;;;;5.93;100.00;99171.44;1794978;80;21074;-64
2021/04/18 00:17:47;;;;;;;27.02;17.67;;;;;;;5.91;100.00;99171.41;1795065;78;21243;-63
2021/04/18 00:20:15;;;;;;;28.62;18.07;;;;;;;5.93;100.00;99172.34;1795079;78;21007;-61
2021/04/18 00:22:44;;;;;;;30.77;17.52;;;;;;;5.96;100.00;99170.32;1794766;78;21168;-64
2021/04/18 00:25:18;;;;;;;25.25;17.20;;;;;;;5.95;100.00;99165.58;1795011;79;21050;-63
2021/04/18 00:27:47;;;;;;;26.40;17.87;;;;;;;5.95;100.00;99164.72;1794502;78;21501;-63
2021/04/18 00:30:18;;;;;;;27.55;17.82;;;;;;;5.92;100.00;99164.59;1794872;78;21013;-63
2021/04/18 00:32:47;;;;;;;25.15;16.67;;;;;;;5.94;100.00;99160.42;1795133;80;21035;-61
2021/04/18 00:35:16;;;;;;;23.45;15.68;;;;;;;5.95;100.00;99163.02;1795036;80;21441;-62
2021/04/18 00:37:44;;;;;;;27.35;16.42;;;;;;;5.89;100.00;99158.95;1794950;80;21575;-61
2021/04/18 00:40:16;;;;;;;26.48;16.80;;;;;;;5.83;100.00;99155.80;1794965;80;21124;-61
2021/04/18 00:42:44;;;;;;;;;;;;;;;5.79;100.00;99156.50;1797664;80;21006;-61
2021/04/18 00:45:13;;;;;;;23.92;15.78;;;;;;;5.74;100.00;99158.04;1794730;80;20223;-62
2021/04/18 00:47:48;;;;;;;25.00;16.62;;;;;;;5.72;100.00;99153.69;1794991;80;21027;-63
2021/04/18 00:50:21;;;;;;;24.32;15.23;;;;;;;5.71;100.00;99151.54;1794752;78;21031;-61
2021/04/18 00:52:51;;;;;;;22.42;13.72;;;;;;;5.73;100.00;99153.75;1794920;80;21043;-62
2021/04/18 00:55:21;;;;;;;22.50;15.53;;;;;;;5.70;100.00;99154.94;1794929;79;21055;-62
2021/04/18 00:57:51;;;;;;;20.82;14.35;;;;;;;5.69;100.00;99154.45;1794979;78;21441;-63
2021/04/18 01:00:20;;;;;;;22.00;14.60;;;;;;;5.65;100.00;99162.45;1794993;78;21465;-62
2021/04/18 01:02:47;;;;;;;21.23;14.53;;;;;;;5.68;100.00;99156.56;1794944;80;21430;-62
2021/04/18 01:05:16;;;;;;;20.57;14.68;;;;;;;5.76;100.00;99141.45;1794789;79;21196;-60
2021/04/18 01:07:46;;;;;;;22.73;14.75;;;;;;;5.83;100.00;99146.83;1795109;79;21600;-62
2021/04/18 01:10:17;;;;;;;23.25;15.80;;;;;;;5.88;100.00;99145.28;1794734;80;21584;-62
2021/04/18 01:12:45;;;;;;;23.30;15.13;;;;;;;5.86;100.00;99143.08;1782415;79;21251;-61
2021/04/18 01:15:16;;;;;;;24.12;16.52;;;;;;;5.90;100.00;99135.07;1780863;80;21043;-62
2021/04/18 01:17:46;;;;;;;23.42;15.80;;;;;;;5.96;100.00;99140.45;1781000;80;21189;-62
2021/04/18 01:20:20;;;;;;;20.05;13.90;;;;;;;6.01;100.00;99139.31;1780878;80;21170;-63
2021/04/18 01:22:50;;;;;;;22.77;14.98;;;;;;;6.01;100.00;99131.63;1780905;80;21039;-62
2021/04/18 01:25:42;;;;;;;22.32;14.45;;;;;;;6.02;100.00;99131.66;1780763;79;21502;-62
2021/04/18 01:28:18;;;;;;;21.73;15.03;;;;;;;5.97;100.00;99125.94;1781000;80;21158;-61
2021/04/18 01:30:46;;;;;;;22.40;15.60;;;;;;;5.93;100.00;99131.73;1780866;79;21039;-61
2021/04/18 01:33:14;;;;;;;21.82;14.73;;;;;;;5.88;99.97;99120.95;1780845;79;21043;-62
2021/04/18 01:35:46;;;;;;;22.77;15.20;;;;;;;5.86;99.91;99122.59;1781086;80;21063;-63
2021/04/18 01:38:17;;;;;;;25.85;15.58;;;;;;;5.84;99.95;99123.36;1781216;80;21193;-61
2021/04/18 01:40:45;;;;;;;23.50;16.75;;;;;;;5.89;100.00;99119.26;1780953;79;21040;-63
2021/04/18 01:43:15;;;;;;;25.75;17.00;;;;;;;5.95;100.00;99124.59;1780870;79;21055;-61
2021/04/18 01:45:46;;;;;;;25.00;15.98;;;;;;;5.99;99.92;99123.88;1781005;79;21221;-62
2021/04/18 01:48:14;;;;;;;21.42;14.90;;;;;;;5.99;99.68;99122.61;1780890;79;21173;-63
2021/04/18 01:50:47;;;;;;;22.30;15.43;;;;;;;5.99;99.51;99120.05;1780860;80;21011;-64
2021/04/18 01:53:15;;;;;;;23.05;14.28;;;;;;;5.99;99.50;99117.89;1781121;80;21047;-65
2021/04/18 01:55:44;;;;;;;22.22;14.23;;;;;;;5.99;99.46;99116.62;1781128;80;21045;-66
2021/04/18 01:58:12;;;;;;;23.18;15.05;;;;;;;5.94;99.31;99111.77;1780844;79;21036;-63
2021/04/18 02:00:45;;;;;;;21.75;14.45;;;;;;;5.92;99.28;99113.36;1775340;80;21498;-64
2021/04/18 02:03:13;;;;;;;23.30;14.95;;;;;;;5.91;99.31;99112.92;1781240;80;21036;-64
2021/04/18 02:05:43;;;;;;;23.57;15.98;;;;;;;5.94;99.36;99111.77;1780977;79;21043;-65
2021/04/18 02:08:20;;;;;;;37.13;23.40;;;;;;;5.97;99.37;99108.87;1781004;79;21463;-64
2021/04/18 02:10:48;;;;;;;37.28;24.07;;;;;;;6.05;99.42;99106.55;1781037;80;21541;-66
2021/04/18 02:13:17;;;;;;;36.10;22.42;;;;;;;6.06;99.13;99107.89;1780897;80;21123;-64
2021/04/18 02:15:48;;;;;;;29.75;18.95;;;;;;;6.07;99.00;99112.59;1778307;80;21074;-65
2021/04/18 02:18:18;;;;;;;27.62;17.60;;;;;;;6.07;98.96;99104.91;1781207;79;21561;-64
2021/04/18 02:20:47;;;;;;;40.58;22.15;;;;;;;6.09;98.99;99101.99;1780847;80;21059;-64
2021/04/18 02:23:15;;;;;;;38.63;21.65;;;;;;;6.13;98.95;99098.72;1781029;80;21075;-64
2021/04/18 02:25:43;;;;;;;39.70;23.85;;;;;;;6.16;98.86;99095.38;1781052;80;21190;-64
2021/04/18 02:28:12;;;;;;;47.08;26.40;;;;;;;6.16;98.69;99102.64;1780820;80;21007;-64
2021/04/18 02:30:40;;;;;;;55.38;29.77;;;;;;;6.11;98.65;99097.79;1780794;80;21193;-62
2021/04/18 02:33:07;;;;;;;55.30;29.32;;;;;;;6.14;98.70;99094.45;1781102;79;21170;-61
2021/04/18 02:35:36;;;;;;;52.58;29.18;;;;;;;6.16;98.68;99089.83;1780885;79;21611;-61
2021/04/18 02:38:04;;;;;;;37.45;21.35;;;;;;;6.16;98.54;99088.55;1780791;80;21007;-61
2021/04/18 02:40:32;;;;;;;30.52;18.02;;;;;;;6.14;98.45;99086.34;1781002;80;21058;-64
2021/04/18 02:43:00;;;;;;;31.40;18.45;;;;;;;6.10;98.38;99083.22;1781009;80;21028;-63
2021/04/18 02:45:29;;;;;;;26.30;16.87;;;;;;;6.09;98.49;99074.67;1780760;80;21194;-64
2021/04/18 02:47:57;;;;;;;31.50;17.70;;;;;;;6.10;98.47;99076.81;1780999;79;21062;-65
2021/04/18 02:50:25;;;;;;;31.42;17.70;;;;;;;6.13;98.49;99073.09;1780807;79;21058;-65
2021/04/18 02:52:53;;;;;;;22.85;15.23;;;;;;;6.13;98.38;99072.20;1780795;80;21043;-65
2021/04/18 02:55:21;;;;;;;22.90;14.93;;;;;;;6.13;98.36;99063.23;1781031;80;21181;-61
2021/04/18 02:57:51;;;;;;;22.90;14.43;;;;;;;6.14;98.32;99071.39;1776001;80;21125;-63
2021/04/18 03:00:20;;;;;;;24.10;14.55;;;;;;;6.16;98.28;99068.47;1780827;79;21055;-61
2021/04/18 03:02:47;;;;;;;21.33;13.05;;;;;;;6.15;98.20;99065.02;1780894;80;21173;-61
2021/04/18 03:05:16;;;;;;;18.42;12.47;;;;;;;6.18;98.21;99059.11;1780734;79;21043;-63
2021/04/18 03:07:46;;;;;;;20.48;11.68;;;;;;;6.16;98.08;99056.94;1780769;79;21071;-62
2021/04/18 03:10:16;;;;;;;17.87;11.83;;;;;;;6.09;97.88;99058.02;1780831;79;21070;-63
2021/04/18 03:12:45;;;;;;;20.32;10.98;;;;;;;6.06;97.94;99058.35;1789539;80;21118;-62
2021/04/18 03:15:15;;;;;;;19.35;11.88;;;;;;;6.07;98.01;99063.92;1794624;80;21181;-62
2021/04/18 03:17:45;;;;;;;;;;;;;;;6.07;97.97;99057.52;1797462;79;21185;-62
2021/04/18 03:20:15;;;;;;;16.95;10.80;;;;;;;6.03;97.94;99055.67;1794837;78;20411;-62
2021/04/18 03:22:45;;;;;;;21.30;11.73;;;;;;;6.03;98.06;99050.55;1795022;80;21568;-62
2021/04/18 03:25:14;;;;;;;17.12;11.25;;;;;;;6.06;98.14;99053.23;1794618;80;21026;-62
2021/04/18 03:27:45;;;;;;;16.25;10.25;;;;;;;6.06;97.99;99054.51;1776649;80;21051;-63
2021/04/18 03:30:18;;;;;;;15.85;9.85;;;;;;;6.02;97.99;99053.94;1793202;79;21047;-63
2021/04/18 03:32:48;;;;;;;15.93;10.13;;;;;;;6.01;98.14;99054.36;1783766;80;21588;-67
2021/04/18 03:35:16;;;;;;;16.65;9.73;;;;;;;5.97;98.10;99049.95;1771913;80;21050;-63
2021/04/18 03:37:44;;;;;;;16.82;10.68;;;;;;;5.92;98.18;99042.93;1791600;79;21714;-63
2021/04/18 03:40:13;;;;;;;16.48;10.58;;;;;;;5.91;98.37;99051.03;1794673;78;21043;-65
2021/04/18 03:42:44;;;;;;;15.65;10.18;;;;;;;5.88;98.39;99040.28;1795201;78;21473;-61
2021/04/18 03:45:14;;;;;;;14.85;10.00;;;;;;;5.91;98.65;99042.48;1794721;80;21067;-62
2021/04/18 03:47:44;;;;;;;18.00;11.28;;;;;;;5.98;98.77;99046.98;1781972;80;21157;-61
2021/04/18 03:50:14;;;;;;;16.10;11.43;;;;;;;6.04;98.75;99045.90;1777870;80;21182;-62
2021/04/18 03:52:50;;;;;;;15.10;9.88;;;;;;;6.09;98.73;99047.77;1778273;80;21066;-63
2021/04/18 03:55:18;;;;;;;16.02;10.53;;;;;;;6.12;98.62;99049.55;1756154;80;21040;-65
2021/04/18 03:57:46;;;;;;;17.70;10.88;;;;;;;6.13;98.62;99057.72;1780358;79;21208;-65
2021/04/18 04:00:17;;;;;;;15.60;10.25;;;;;;;6.18;98.60;99056.16;1778342;80;21039;-65
2021/04/18 04:02:44;;;;;;;16.90;11.10;;;;;;;6.20;98.49;99051.92;1776961;79;21083;-65
2021/04/18 04:05:15;;;;;;;14.95;9.98;;;;;;;6.25;98.52;99054.22;1778623;79;21169;-64
2021/04/18 04:07:43;;;;;;;16.35;9.98;;;;;;;6.32;98.44;99064.66;1780360;80;21179;-64
2021/04/18 04:10:12;;;;;;;15.15;10.45;;;;;;;6.40;98.47;99060.20;1777612;80;21103;-63
2021/04/18 04:12:43;;;;;;;17.15;11.18;;;;;;;6.45;98.27;99057.78;1774546;79;21476;-64
2021/04/18 04:15:11;;;;;;;15.68;9.80;;;;;;;6.50;98.24;99061.34;1769657;80;21047;-64
2021/04/18 04:17:39;;;;;;;15.98;9.70;;;;;;;6.55;98.12;99067.47;1765794;80;21459;-64
2021/04/18 04:20:11;;;;;;;13.20;9.43;;;;;;;6.59;97.91;99056.87;1763300;80;21175;-64
2021/04/18 04:23:01;;;;;;;15.40;10.20;;;;;;;6.62;97.70;99055.29;1765219;80;21060;-64
2021/04/18 04:25:29;;;;;;;13.78;9.40;;;;;;;6.64;97.66;99057.49;1763316;80;21053;-64
2021/04/18 04:27:57;;;;;;;13.78;9.45;;;;;;;6.69;97.50;99055.03;1776181;79;21057;-64
2021/04/18 04:30:26;;;;;;;13.38;9.60;;;;;;;6.72;97.39;99050.88;1760074;79;21101;-63
2021/04/18 04:32:54;;;;;;;14.78;9.43;;;;;;;6.71;97.11;99043.98;1767810;79;21025;-65
2021/04/18 04:35:22;;;;;;;13.98;8.93;;;;;;;6.72;97.25;99044.46;1767479;80;21065;-64
2021/04/18 04:37:49;;;;;;;12.37;8.45;;;;;;;6.78;97.17;99042.89;1763560;80;21198;-64
2021/04/18 04:40:18;;;;;;;13.75;9.58;;;;;;;6.85;97.11;99046.08;1764865;79;21043;-68
2021/04/18 04:42:46;;;;;;;14.10;8.88;;;;;;;6.90;96.97;99044.51;1766650;80;21542;-65
2021/04/18 04:45:14;;;;;;;14.50;10.45;;;;;;;6.95;96.90;99042.52;1764160;80;21056;-64
2021/04/18 04:47:42;;;;;;;13.60;9.70;;;;;;;7.02;96.64;99039.70;1763827;80;21094;-64
2021/04/18 04:50:11;;;;;;;14.18;10.25;;;;;;;7.05;96.34;99037.22;1763373;80;21173;-66
2021/04/18 04:52:39;;;;;;;15.05;10.45;;;;;;;7.01;96.04;99042.22;1771799;80;21056;-64
2021/04/18 04:55:08;;;;;;;14.33;10.13;;;;;;;7.01;96.24;99039.66;1765087;80;21239;-64
2021/04/18 04:57:36;;;;;;;13.15;10.38;;;;;;;7.07;96.14;99033.39;1766990;80;20987;-65
2021/04/18 05:00:06;;;;;;;18.20;12.15;;;;;;;7.13;96.16;99033.14;1764984;80;21096;-66
2021/04/18 05:02:34;;;;;;;15.15;10.68;;;;;;;7.25;96.06;99037.73;1763689;80;21017;-64
2021/04/18 05:05:03;;;;;;;18.67;11.40;;;;;;;7.35;95.88;99027.25;1768495;80;21166;-64
2021/04/18 05:07:31;;;;;;;15.00;10.25;;;;;;;7.42;95.66;99025.30;1767037;80;21035;-64
2021/04/18 05:10:01;;;;;;;14.73;10.10;;;;;;;7.51;95.60;99024.25;1765614;79;21032;-64
2021/04/18 05:12:29;;;;;;;14.07;9.78;;;;;;;7.60;95.27;99022.30;1767311;79;21348;-65
2021/04/18 05:14:56;;;;;;;15.30;10.25;;;;;;;7.63;94.97;99015.08;1779469;79;21141;-64
2021/04/18 05:17:26;;;;;;;13.80;10.35;;;;;;;7.71;94.92;99016.13;1793308;80;21189;-65
2021/04/18 05:19:53;;;;;;;17.95;11.95;;;;;;;7.77;94.79;99006.01;1794844;80;21046;-64
2021/04/18 05:22:21;;;;;;;17.85;11.43;;;;;;;7.81;94.50;99009.08;1763604;81;21218;-65
2021/04/18 05:24:49;;;;;;;19.17;12.80;;;;;;;7.84;94.43;99011.74;1763599;81;21494;-64
2021/04/18 05:27:18;;;;;;;16.62;11.30;;;;;;;7.88;94.40;99016.52;1763456;80;21058;-66
2021/04/18 05:29:46;;;;;;;17.35;11.30;;;;;;;7.89;94.01;99011.42;1764438;80;21230;-64
2021/04/18 05:32:13;;;;;;;15.95;10.85;;;;;;;7.93;93.94;99009.36;1774791;80;21129;-64
2021/04/18 05:34:41;;;;;;;19.85;13.10;;;;;;;7.95;93.46;99008.98;1783995;80;21117;-65
2021/04/18 05:37:09;;;;;;;16.55;11.25;;;;;;;7.95;93.13;99003.84;1767701;80;21153;-65
2021/04/18 05:39:36;;;;;;;18.40;12.18;;;;;;;7.97;93.15;99000.03;1763488;80;21187;-66
2021/04/18 05:42:06;;;;;;;17.52;12.68;;;;;;;8.02;93.16;98999.30;1763426;80;21072;-65
2021/04/18 05:44:35;;;;;;;17.20;11.43;;;;;;;8.11;93.06;99002.47;1763571;80;21118;-66
2021/04/18 05:47:04;;;;;;;15.13;10.38;;;;;;;8.20;92.81;99010.80;1762440;81;21241;-63
2021/04/18 05:49:33;;;;;;;16.55;9.65;;;;;;;8.24;92.42;99008.34;1763607;81;21050;-63
2021/04/18 05:52:01;;;;;;;16.57;10.53;;;;;;;8.31;92.49;99007.16;1763505;81;21182;-66
2021/04/18 05:54:28;;;;;;;17.00;12.05;;;;;;;8.38;92.17;99013.75;1763568;81;21054;-67
2021/04/18 05:56:56;;;;;;;23.77;18.25;;;;;;;8.44;91.89;99010.46;1763729;81;21040;-66
2021/04/18 05:59:24;;;;;;;24.63;19.27;;;;;;;8.46;91.63;99001.94;1763387;80;21171;-66
2021/04/18 06:01:53;;;;;;;23.42;18.15;;;;;;;8.49;91.47;98998.56;1763658;80;21064;-65
2021/04/18 06:04:22;;;;;;;18.37;13.85;;;;;;;8.49;91.16;98998.56;1763554;81;21064;-65
2021/04/18 06:06:50;;;;;;;17.82;13.15;;;;;;;8.48;91.03;99001.56;1763508;80;21178;-62
2021/04/18 06:09:18;;;;;;;16.50;12.58;;;;;;;8.52;90.92;98995.19;1763593;81;21152;-62
2021/04/18 06:11:46;;;;;;;15.68;11.38;;;;;;;8.56;90.77;98993.13;1763483;80;21182;-63
2021/04/18 06:14:14;;;;;;;15.53;13.03;;;;;;;8.61;90.66;98996.66;1763302;81;21060;-63
2021/04/18 06:16:42;;;;;;;15.08;10.80;;;;;;;8.65;90.44;98990.72;1762745;81;21539;-64
2021/04/18 06:19:10;;;;;;;17.00;12.18;;;;;;;8.73;90.49;98994.33;1763681;81;21186;-63
2021/04/18 06:21:37;;;;;;;15.88;11.00;;;;;;;8.89;90.41;98995.47;1763659;80;21151;-64
2021/04/18 06:24:07;;;;;;;16.30;11.08;;;;;;;9.10;90.14;98989.40;1763490;81;21072;-62
2021/04/18 06:26:35;;;;;;;13.93;10.23;;;;;;;9.30;89.79;98989.73;1763531;81;21036;-62
2021/04/18 06:29:03;;;;;;;14.68;10.70;;;;;;;9.44;88.94;98992.95;1763511;81;21057;-64
2021/04/18 06:31:30;;;;;;;12.55;9.60;;;;;;;9.53;88.64;98981.52;1763559;81;21154;-64
2021/04/18 06:33:58;;;;;;;14.33;9.55;;;;;;;9.65;88.35;98983.42;1763738;80;21165;-63
2021/04/18 06:36:27;;;;;;;13.78;8.68;;;;;;;9.69;87.78;98984.78;1763615;81;21133;-62
2021/04/18 06:38:55;;;;;;;14.23;10.10;;;;;;;9.73;87.10;98990.41;1763657;81;21150;-62
2021/04/18 06:41:23;;;;;;;17.92;10.40;;;;;;;9.68;86.79;98993.77;1763496;81;21060;-63
2021/04/18 06:43:52;;;;;;;15.70;11.10;;;;;;;9.60;86.55;98988.50;1763411;80;21040;-64
2021/04/18 06:46:21;;;;;;;13.60;9.48;;;;;;;9.47;86.73;98982.29;1763653;81;21586;-64
2021/04/18 06:48:51;;;;;;;14.13;10.25;;;;;;;9.38;86.83;98993.72;1763462;81;21475;-64
2021/04/18 06:51:19;;;;;;;15.25;10.75;;;;;;;9.31;86.99;98994.06;1763609;81;21013;-63
2021/04/18 06:53:48;;;;;;;18.30;11.08;;;;;;;9.24;87.07;98993.94;1763473;81;21068;-62
2021/04/18 06:56:15;;;;;;;19.45;14.50;;;;;;;9.17;87.14;98998.53;1763422;80;21052;-63
2021/04/18 06:58:43;;;;;;;21.90;16.48;;;;;;;9.11;87.30;98995.02;1763340;81;21178;-63
2021/04/18 07:01:11;;;;;;;23.15;17.80;;;;;;;9.06;87.35;98994.49;1763570;81;21052;-62
2021/04/18 07:03:39;;;;;;;21.73;15.35;;;;;;;9.02;87.70;98999.12;1763390;80;21048;-63
2021/04/18 07:06:09;;;;;;;22.48;15.03;;;;;;;9.02;87.87;99000.41;1763690;80;21182;-64
2021/04/18 07:08:37;;;;;;;21.15;15.05;;;;;;;9.01;88.06;98991.83;1763656;80;21067;-64
2021/04/18 07:11:19;;;;;;;16.80;12.53;;;;;;;9.04;88.11;98983.30;1763546;81;21063;-62
2021/04/18 07:13:48;;;;;;;16.87;12.15;;;;;;;9.10;88.12;98988.53;1763406;80;21088;-64
2021/04/18 07:16:30;;;;;;;17.60;11.80;;;;;;;9.16;88.10;98982.23;1763457;80;21090;-64
2021/04/18 07:18:58;;;;;;;16.60;11.20;;;;;;;9.19;87.91;98984.84;1763347;80;21048;-63
2021/04/18 07:21:49;;;;;;;20.20;13.65;;;;;;;9.15;87.82;98983.47;1763799;81;21497;-65
2021/04/18 07:24:19;;;;;;;17.23;12.65;;;;;;;9.10;88.14;98979.53;1763608;80;21036;-64
2021/04/18 07:27:05;;;;;;;19.75;11.73;;;;;;;9.05;88.12;98970.44;1763410;80;21178;-64
2021/04/18 07:29:34;;;;;;;15.38;11.50;;;;;;;9.01;88.32;98975.53;1763360;81;21068;-62
2021/04/18 07:32:24;;;;;;;18.07;13.10;;;;;;;8.99;88.55;98978.48;1763443;81;21076;-64
2021/04/18 07:34:53;;;;;;;18.10;12.85;;;;;;;9.01;88.76;98967.80;1763369;81;21033;-63
2021/04/18 07:37:25;;;;;;;18.95;14.43;;;;;;;9.08;88.76;98973.48;1763567;81;21031;-62
2021/04/18 07:40:00;;;;;;;20.00;15.75;;;;;;;9.12;88.83;98968.84;1763396;81;21040;-62
2021/04/18 07:42:41;;;;;;;20.40;15.55;;;;;;;9.15;88.72;98970.17;1763369;81;21040;-64
2021/04/18 07:45:16;;;;;;;21.82;16.15;;;;;;;9.18;88.62;98972.80;1763322;81;21020;-64
2021/04/18 07:47:47;;;;;;;18.67;13.45;;;;;;;9.20;88.60;98976.27;1763323;81;21072;-63
2021/04/18 07:50:20;;;;;;;14.73;10.55;;;;;;;9.21;88.29;98976.73;1763494;81;21182;-64
2021/04/18 07:52:49;;;;;;;;;;;;;;;9.18;88.22;98978.37;1765965;80;21183;-63
2021/04/18 07:55:20;;;;;;;16.42;9.75;;;;;;;9.13;88.23;98976.60;1763622;80;20134;-62
2021/04/18 07:57:47;;;;;;;16.20;10.87;;;;;;;9.11;88.22;98974.42;1763830;81;21206;-63
2021/04/18 08:00:17;;;;;;;16.52;11.50;;;;;;;9.09;88.32;98974.80;1763639;80;21048;-63
2021/04/18 08:02:53;;;;;;;19.27;13.53;;;;;;;9.13;88.41;98978.28;1763595;81;21178;-64
2021/04/18 08:05:25;;;;;;;17.55;10.82;;;;;;;9.15;88.42;98983.05;1763631;81;21092;-63
2021/04/18 08:08:15;;;;;;;15.25;11.15;;;;;;;9.19;88.55;98981.41;1763675;80;21068;-64
2021/04/18 08:10:47;;;;;;;18.15;11.20;;;;;;;9.25;88.52;98981.07;1763571;81;21178;-64
2021/04/18 08:13:23;;;;;;;16.35;9.98;;;;;;;9.34;88.40;98982.95;1761287;80;21294;-64
2021/04/18 08:16:06;;;;;;;14.70;9.58;;;;;;;9.43;88.29;98979.64;1750158;82;21250;-63
2021/04/18 08:18:46;;;;;;;15.45;10.18;;;;;;;9.42;87.92;98989.51;1749939;80;21057;-64
2021/04/18 08:21:30;;;;;;;16.42;10.93;;;;;;;9.38;88.09;98984.70;1749956;81;21618;-63
2021/04/18 08:24:02;;;;;;;13.50;9.33;;;;;;;9.39;88.07;98985.56;1749956;82;21291;-63
2021/04/18 08:26:32;;;;;;;14.63;9.20;;;;;;;9.33;88.00;98993.64;1750083;82;21195;-62
2021/04/18 08:29:06;;;;;;;13.28;8.63;;;;;;;9.29;88.19;98988.02;1750272;80;21045;-63
2021/04/18 08:32:00;;;;;;;13.80;8.95;;;;;;;9.25;88.16;98990.08;1750188;82;21029;-64
2021/04/18 08:34:37;;;;;;;32.00;14.63;;;;;;;9.25;88.28;98990.08;1750284;80;21056;-65
2021/04/18 08:37:15;;;;;;;14.98;9.85;;;;;;;9.19;88.42;98991.70;1750276;81;21171;-62
2021/04/18 08:39:43;;;;;;;34.70;12.82;;;;;;;9.06;88.70;98985.48;1750075;82;21085;-63
2021/04/18 08:42:19;;;;;;;17.35;9.45;;;;;;;8.94;89.19;98985.27;1750272;81;21169;-71
2021/04/18 08:44:54;;;;;;;34.18;13.58;;;;;;;9.00;89.53;98980.21;1870597;76;22146;-62
2021/04/18 08:47:28;;;;;;;21.02;10.75;;;;;;;8.99;89.76;98980.64;1827810;78;21553;-64
2021/04/18 08:50:20;;;;;;;13.78;9.83;;;;;;;9.08;89.76;98976.05;1827529;77;21277;-65
2021/04/18 08:52:39;;;;;;;14.47;9.65;;;;;;;9.12;89.66;98969.70;1823822;77;21180;-64
2021/04/18 08:55:12;;;;;;;13.15;9.20;;;;;;;9.05;89.73;98972.14;1827880;78;21130;-63
2021/04/18 08:57:39;;;;;;;11.57;8.08;;;;;;;9.04;89.99;98970.42;1827922;78;21546;-59
2021/04/18 09:00:15;;;;;;;12.40;8.18;;;;;;;9.04;90.10;98963.99;1827826;77;21268;-63
2021/04/18 09:02:54;;;;;;;12.85;8.25;;;;;;;9.04;90.18;98967.85;1827952;78;21521;-64
2021/04/18 09:05:24;;;;;;;13.72;8.98;;;;;;;9.09;90.22;98966.22;1827715;78;21106;-63
2021/04/18 09:07:52;;;;;;;13.50;8.00;;;;;;;9.15;90.09;98971.46;1827831;77;21124;-63
2021/04/18 09:10:21;;;;;;;11.35;8.05;;;;;;;9.16;89.81;98972.32;1827566;78;21134;-63
2021/04/18 09:12:51;;;;;;;10.45;7.80;;;;;;;9.11;89.79;98972.27;1826944;77;21534;-63
2021/04/18 09:15:20;;;;;;;13.22;8.18;;;;;;;9.04;89.85;98973.00;1827489;77;21135;-63
2021/04/18 09:17:48;;;;;;;12.33;7.87;;;;;;;9.06;90.06;98977.77;1827687;78;21154;-63
2021/04/18 09:20:18;;;;;;;12.45;7.92;;;;;;;9.09;90.14;98972.66;1827715;77;21146;-64
2021/04/18 09:22:46;;;;;;;11.63;7.92;;;;;;;9.10;90.20;98972.66;1827551;78;21146;-64
2021/04/18 09:25:19;;;;;;;11.33;8.15;;;;;;;9.18;90.08;98977.94;1827504;78;21284;-63
2021/04/18 09:27:53;;;;;;;12.60;8.70;;;;;;;9.20;89.90;98977.55;1827463;78;21146;-64
2021/04/18 09:30:26;;;;;;;12.80;7.80;;;;;;;9.25;89.99;98976.34;1827491;78;21280;-64
2021/04/18 09:32:57;;;;;;;13.38;8.98;;;;;;;9.22;89.78;98975.88;1827473;78;21111;-63
2021/04/18 09:35:27;;;;;;;10.78;7.87;;;;;;;9.26;89.91;98984.11;1827480;78;21103;-62
2021/04/18 09:38:04;;;;;;;11.65;8.45;;;;;;;9.33;89.86;98982.05;1827762;77;21139;-65
2021/04/18 09:40:34;;;;;;;10.08;7.47;;;;;;;9.47;89.84;98982.72;1827639;77;21198;-64
2021/04/18 09:43:06;;;;;;;13.35;8.13;;;;;;;9.54;89.34;98980.27;1827780;77;21166;-64
2021/04/18 09:45:35;;;;;;;13.53;8.90;;;;;;;9.54;89.32;98988.39;1827965;78;21257;-62
2021/04/18 09:48:17;;;;;;;13.38;9.08;;;;;;;9.61;89.42;98979.91;1827940;78;21147;-64
2021/04/18 09:51:04;;;;;;;10.95;8.00;;;;;;;9.67;89.00;98990.33;1828108;78;21162;-64
2021/04/18 09:53:32;;;;;;;12.43;8.10;;;;;;;9.65;88.75;98992.02;1828047;78;21166;-63
2021/04/18 09:56:08;;;;;;;11.60;8.05;;;;;;;9.65;88.85;98986.86;1827113;78;21320;-64
2021/04/18 09:58:42;;;;;;;12.13;8.30;;;;;;;9.74;88.80;98985.72;1827143;77;21146;-63
2021/04/18 10:01:33;;;;;;;11.73;8.15;;;;;;;9.76;88.35;98984.00;1827178;78;21552;-63
2021/04/18 10:04:00;;;;;;;12.25;8.43;;;;;;;9.74;88.40;98989.58;1827148;78;21123;-64
2021/04/18 10:06:47;;;;;;;13.18;7.70;;;;;;;9.62;88.35;98989.39;1827199;77;21146;-63
2021/04/18 10:09:14;;;;;;;13.20;8.83;;;;;;;9.52;88.57;98993.96;1827466;77;21135;-64
2021/04/18 10:12:00;;;;;;;12.78;8.25;;;;;;;9.50;89.00;98999.50;1827362;77;21157;-65
2021/04/18 10:14:29;;;;;;;12.60;8.73;;;;;;;9.56;89.09;98998.30;1827247;78;21098;-64
2021/04/18 10:16:59;;;;;;;12.53;8.50;;;;;;;9.60;89.06;98991.50;1827503;78;21091;-64
2021/04/18 10:19:28;;;;;;;13.72;8.93;;;;;;;9.52;89.05;99003.84;1827168;77;21130;-65
2021/04/18 10:22:10;;;;;;;14.03;9.23;;;;;;;9.49;89.26;99002.91;1827428;78;21154;-65
2021/04/18 10:24:48;;;;;;;12.55;8.68;;;;;;;9.43;89.39;99002.82;1827291;78;21295;-63
2021/04/18 10:27:19;;;;;;;12.82;9.10;;;;;;;9.33;89.63;99011.67;1827463;78;21682;-64
2021/04/18 10:29:48;;;;;;;13.22;8.43;;;;;;;9.30;89.95;99006.48;1808872;78;21142;-64
2021/04/18 10:32:18;;;;;;;13.50;9.60;;;;;;;9.26;90.12;99008.57;1827195;77;21134;-63
2021/04/18 10:34:49;;;;;;;14.65;9.25;;;;;;;9.25;90.30;99011.97;1827758;77;21114;-64
2021/04/18 10:37:18;;;;;;;12.73;9.50;;;;;;;9.19;90.52;99015.73;1827217;77;21130;-64
2021/04/18 10:39:48;;;;;;;17.23;9.65;;;;;;;9.18;90.70;99017.84;1827166;78;21277;-64
2021/04/18 10:42:15;;;;;;;13.30;8.88;;;;;;;9.21;90.92;99012.78;1827211;77;21138;-64
2021/04/18 10:44:44;;;;;;;15.18;9.95;;;;;;;9.27;91.03;99018.02;1817317;78;21316;-65
2021/04/18 10:47:16;;;;;;;13.35;9.85;;;;;;;9.38;90.98;99015.61;1812827;78;21281;-64
2021/04/18 10:49:49;;;;;;;14.05;9.50;;;;;;;9.50;90.99;99027.84;1813046;79;21134;-63
2021/04/18 10:52:16;;;;;;;14.23;9.88;;;;;;;9.64;90.80;99014.77;1813136;79;21148;-64
2021/04/18 10:54:44;;;;;;;14.93;10.35;;;;;;;9.71;90.70;99019.15;1812948;79;21327;-64
2021/04/18 10:57:11;;;;;;;15.10;9.50;;;;;;;9.83;90.63;99018.91;1813116;78;21288;-63
2021/04/18 10:59:39;;;;;;;13.15;9.65;;;;;;;10.05;90.49;99023.53;1812779;79;21155;-64
2021/04/18 11:02:07;;;;;;;15.68;10.32;;;;;;;10.28;89.69;99019.11;1812869;78;21147;-63
2021/04/18 11:04:35;;;;;;;17.60;10.23;;;;;;;10.45;89.16;99020.19;1812977;79;21274;-64
2021/04/18 11:07:04;;;;;;;14.53;10.55;;;;;;;10.69;88.51;99022.64;1813032;79;21269;-64
2021/04/18 11:09:32;;;;;;;13.45;10.40;;;;;;;10.84;87.94;99017.22;1812787;78;21305;-63
2021/04/18 11:12:02;;;;;;;13.30;9.60;;;;;;;11.13;86.57;99014.48;1812681;79;21146;-63
2021/04/18 11:14:29;;;;;;;14.55;10.23;;;;;;;11.32;85.51;99013.78;1812784;79;21099;-64
2021/04/18 11:16:57;;;;;;;13.95;8.50;;;;;;;11.49;84.85;99013.50;1813240;78;21127;-64
2021/04/18 11:19:26;;;;;;;14.60;9.20;;;;;;;11.60;83.67;99014.02;1812856;78;21629;-63
2021/04/18 11:21:56;;;;;;;14.73;8.83;;;;;;;11.63;83.22;99008.89;1812896;79;21178;-65
2021/04/18 11:24:25;;;;;;;10.65;8.48;;;;;;;11.67;82.59;99014.50;1813017;79;21158;-63
2021/04/18 11:26:53;;;;;;;13.20;8.93;;;;;;;11.78;82.05;99009.41;1813122;78;21119;-64
2021/04/18 11:29:22;;;;;;;14.50;8.93;;;;;;;11.86;81.63;99009.05;1812943;78;21269;-64
2021/04/18 11:31:49;;;;;;;12.15;8.70;;;;;;;11.89;80.97;99009.95;1812757;78;21257;-63
2021/04/18 11:34:17;;;;;;;10.98;8.13;;;;;;;11.93;80.75;99017.30;1812931;78;21273;-63
2021/04/18 11:36:45;;;;;;;10.50;7.85;;;;;;;11.93;80.08;99015.59;1812965;78;21143;-64
2021/04/18 11:39:14;;;;;;;9.00;6.53;;;;;;;11.77;80.03;99020.17;1812611;78;21352;-64
2021/04/18 11:41:43;;;;;;;9.18;7.28;;;;;;;11.67;80.42;99023.12;1813010;79;21130;-65